sensor_id;sensor_type;location;lat;lon;timestamp;P1;durP1;ratioP1;P2;durP2;ratioP2
21014;SDS011;19207;-23.482;-46.500;2023-03-01T00:01:45;27.42;;;12.32;;
21014;SDS011;19207;-23.482;-46.500;2023-03-01T00:04:32;41.53;;;14.73;;
21014;SDS011;19207;-23.482;-46.500;2023-03-01T00:07:20;37.35;;;14.93;;
21014;SDS011;19207;-23.482;-46.500;2023-03-01T00:10:07;34.13;;;14.40;;
21014;SDS011;19207;-23.482;-46.500;2023-03-01T00:13:15;32.47;;;13.73;;
21014;SDS011;19207;-23.482;-46.500;2023-03-01T00:16:03;29.30;;;13.00;;
21014;SDS011;19207;-23.482;-46.500;2023-03-01T00:18:49;38.63;;;14.30;;
21014;SDS011;19207;-23.482;-46.500;2023-03-01T00:21:36;31.83;;;13.30;;
21014;SDS011;19207;-23.482;-46.500;2023-03-01T00:24:23;26.73;;;12.45;;
21014;SDS011;19207;-23.482;-46.500;2023-03-01T00:27:10;33.88;;;12.32;;
21014;SDS011;19207;-23.482;-46.500;2023-03-01T00:29:57;33.28;;;12.57;;
21014;SDS011;19207;-23.482;-46.500;2023-03-01T00:32:44;25.60;;;11.73;;
21014;SDS011;19207;-23.482;-46.500;2023-03-01T00:35:32;22.52;;;11.20;;
21014;SDS011;19207;-23.482;-46.500;2023-03-01T00:38:18;19.80;;;9.27;;
21014;SDS011;19207;-23.482;-46.500;2023-03-01T00:41:07;17.90;;;9.15;;
21014;SDS011;19207;-23.482;-46.500;2023-03-01T00:43:55;17.60;;;8.32;;
21014;SDS011;19207;-23.482;-46.500;2023-03-01T00:46:41;14.85;;;7.75;;
21014;SDS011;19207;-23.482;-46.500;2023-03-01T00:49:29;12.30;;;7.18;;
21014;SDS011;19207;-23.482;-46.500;2023-03-01T00:52:15;14.45;;;7.60;;
21014;SDS011;19207;-23.482;-46.500;2023-03-01T00:55:03;17.40;;;7.40;;
21014;SDS011;19207;-23.482;-46.500;2023-03-01T00:57:50;13.80;;;7.18;;
21014;SDS011;19207;-23.482;-46.500;2023-03-01T01:00:37;18.02;;;6.75;;
21014;SDS011;19207;-23.482;-46.500;2023-03-01T01:03:23;13.85;;;7.28;;
21014;SDS011;19207;-23.482;-46.500;2023-03-01T01:06:14;14.65;;;7.45;;
21014;SDS011;19207;-23.482;-46.500;2023-03-01T01:09:01;11.12;;;6.07;;
21014;SDS011;19207;-23.482;-46.500;2023-03-01T01:11:49;14.85;;;6.93;;
21014;SDS011;19207;-23.482;-46.500;2023-03-01T01:14:37;13.68;;;6.97;;
21014;SDS011;19207;-23.482;-46.500;2023-03-01T01:17:25;11.50;;;6.70;;
21014;SDS011;19207;-23.482;-46.500;2023-03-01T01:20:11;13.18;;;7.00;;
21014;SDS011;19207;-23.482;-46.500;2023-03-01T01:22:58;14.18;;;6.65;;
21014;SDS011;19207;-23.482;-46.500;2023-03-01T01:25:45;14.52;;;7.62;;
21014;SDS011;19207;-23.482;-46.500;2023-03-01T01:28:33;17.50;;;9.43;;
21014;SDS011;19207;-23.482;-46.500;2023-03-01T01:31:20;15.75;;;8.43;;
21014;SDS011;19207;-23.482;-46.500;2023-03-01T01:34:12;20.67;;;7.95;;
21014;SDS011;19207;-23.482;-46.500;2023-03-01T01:36:59;15.00;;;7.93;;
21014;SDS011;19207;-23.482;-46.500;2023-03-01T01:39:48;17.42;;;6.90;;
21014;SDS011;19207;-23.482;-46.500;2023-03-01T01:42:36;11.10;;;6.20;;
21014;SDS011;19207;-23.482;-46.500;2023-03-01T01:45:26;8.48;;;5.90;;
21014;SDS011;19207;-23.482;-46.500;2023-03-01T01:48:19;9.25;;;5.80;;
21014;SDS011;19207;-23.482;-46.500;2023-03-01T01:51:07;10.35;;;5.85;;
21014;SDS011;19207;-23.482;-46.500;2023-03-01T01:53:57;12.40;;;5.75;;
21014;SDS011;19207;-23.482;-46.500;2023-03-01T01:56:46;13.30;;;6.60;;
21014;SDS011;19207;-23.482;-46.500;2023-03-01T01:59:34;14.75;;;7.47;;
21014;SDS011;19207;-23.482;-46.500;2023-03-01T02:02:21;10.18;;;7.35;;
21014;SDS011;19207;-23.482;-46.500;2023-03-01T02:05:14;11.77;;;7.18;;
21014;SDS011;19207;-23.482;-46.500;2023-03-01T02:08:02;12.60;;;6.80;;
21014;SDS011;19207;-23.482;-46.500;2023-03-01T02:10:49;9.77;;;6.35;;
21014;SDS011;19207;-23.482;-46.500;2023-03-01T02:13:37;15.80;;;6.03;;
21014;SDS011;19207;-23.482;-46.500;2023-03-01T02:16:24;19.15;;;6.05;;
21014;SDS011;19207;-23.482;-46.500;2023-03-01T02:19:14;9.52;;;5.93;;
21014;SDS011;19207;-23.482;-46.500;2023-03-01T02:22:06;9.45;;;5.90;;
21014;SDS011;19207;-23.482;-46.500;2023-03-01T02:30:47;15.73;;;8.05;;
21014;SDS011;19207;-23.482;-46.500;2023-03-01T02:33:52;19.25;;;7.72;;
21014;SDS011;19207;-23.482;-46.500;2023-03-01T02:36:46;15.55;;;8.13;;
21014;SDS011;19207;-23.482;-46.500;2023-03-01T02:39:39;18.62;;;7.18;;
21014;SDS011;19207;-23.482;-46.500;2023-03-01T02:42:30;20.62;;;8.57;;
21014;SDS011;19207;-23.482;-46.500;2023-03-01T02:45:17;15.07;;;8.20;;
21014;SDS011;19207;-23.482;-46.500;2023-03-01T02:48:05;22.35;;;8.43;;
21014;SDS011;19207;-23.482;-46.500;2023-03-01T02:50:53;25.98;;;9.48;;
21014;SDS011;19207;-23.482;-46.500;2023-03-01T02:53:49;22.60;;;9.68;;
21014;SDS011;19207;-23.482;-46.500;2023-03-01T02:56:39;25.40;;;10.60;;
21014;SDS011;19207;-23.482;-46.500;2023-03-01T02:59:28;25.50;;;10.57;;
21014;SDS011;19207;-23.482;-46.500;2023-03-01T03:02:19;25.05;;;11.38;;
21014;SDS011;19207;-23.482;-46.500;2023-03-01T03:05:22;26.48;;;11.38;;
21014;SDS011;19207;-23.482;-46.500;2023-03-01T03:08:09;23.20;;;10.95;;
21014;SDS011;19207;-23.482;-46.500;2023-03-01T03:10:56;26.12;;;10.73;;
21014;SDS011;19207;-23.482;-46.500;2023-03-01T03:13:43;24.12;;;11.00;;
21014;SDS011;19207;-23.482;-46.500;2023-03-01T03:16:33;28.90;;;11.45;;
21014;SDS011;19207;-23.482;-46.500;2023-03-01T03:19:20;24.60;;;11.05;;
21014;SDS011;19207;-23.482;-46.500;2023-03-01T03:22:07;30.37;;;11.25;;
21014;SDS011;19207;-23.482;-46.500;2023-03-01T03:24:54;26.33;;;12.20;;
21014;SDS011;19207;-23.482;-46.500;2023-03-01T03:27:41;28.62;;;14.35;;
21014;SDS011;19207;-23.482;-46.500;2023-03-01T03:30:29;64.05;;;34.28;;
21014;SDS011;19207;-23.482;-46.500;2023-03-01T03:33:16;84.10;;;41.15;;
21014;SDS011;19207;-23.482;-46.500;2023-03-01T03:36:04;73.78;;;33.03;;
21014;SDS011;19207;-23.482;-46.500;2023-03-01T03:38:51;82.60;;;47.03;;
21014;SDS011;19207;-23.482;-46.500;2023-03-01T03:41:37;111.82;;;64.75;;
21014;SDS011;19207;-23.482;-46.500;2023-03-01T03:44:24;128.60;;;67.80;;
21014;SDS011;19207;-23.482;-46.500;2023-03-01T03:47:12;106.07;;;57.33;;
21014;SDS011;19207;-23.482;-46.500;2023-03-01T03:49:59;95.85;;;48.72;;
21014;SDS011;19207;-23.482;-46.500;2023-03-01T03:52:46;113.35;;;58.45;;
21014;SDS011;19207;-23.482;-46.500;2023-03-01T03:55:33;100.47;;;49.78;;
21014;SDS011;19207;-23.482;-46.500;2023-03-01T03:58:20;106.65;;;51.97;;
21014;SDS011;19207;-23.482;-46.500;2023-03-01T04:01:08;101.50;;;55.65;;
21014;SDS011;19207;-23.482;-46.500;2023-03-01T04:03:55;99.87;;;50.72;;
21014;SDS011;19207;-23.482;-46.500;2023-03-01T04:06:41;103.32;;;52.03;;
21014;SDS011;19207;-23.482;-46.500;2023-03-01T04:09:28;56.58;;;21.52;;
21014;SDS011;19207;-23.482;-46.500;2023-03-01T04:12:15;41.40;;;15.77;;
21014;SDS011;19207;-23.482;-46.500;2023-03-01T04:15:06;40.80;;;13.48;;
21014;SDS011;19207;-23.482;-46.500;2023-03-01T04:18:00;39.38;;;11.48;;
21014;SDS011;19207;-23.482;-46.500;2023-03-01T04:20:47;44.53;;;14.02;;
21014;SDS011;19207;-23.482;-46.500;2023-03-01T04:23:34;43.92;;;12.10;;
21014;SDS011;19207;-23.482;-46.500;2023-03-01T04:26:21;25.52;;;9.45;;
21014;SDS011;19207;-23.482;-46.500;2023-03-01T04:29:08;30.40;;;12.80;;
21014;SDS011;19207;-23.482;-46.500;2023-03-01T04:31:54;34.28;;;12.70;;
21014;SDS011;19207;-23.482;-46.500;2023-03-01T04:34:41;31.37;;;12.70;;
21014;SDS011;19207;-23.482;-46.500;2023-03-01T04:37:27;40.67;;;13.52;;
21014;SDS011;19207;-23.482;-46.500;2023-03-01T04:40:14;30.52;;;13.65;;
21014;SDS011;19207;-23.482;-46.500;2023-03-01T04:43:02;30.10;;;14.27;;
21014;SDS011;19207;-23.482;-46.500;2023-03-01T04:45:48;31.30;;;12.98;;
21014;SDS011;19207;-23.482;-46.500;2023-03-01T04:48:37;33.22;;;12.95;;
21014;SDS011;19207;-23.482;-46.500;2023-03-01T04:51:24;33.95;;;13.73;;
21014;SDS011;19207;-23.482;-46.500;2023-03-01T04:54:11;29.12;;;13.35;;
21014;SDS011;19207;-23.482;-46.500;2023-03-01T04:56:57;30.85;;;14.98;;
21014;SDS011;19207;-23.482;-46.500;2023-03-01T04:59:44;29.67;;;14.85;;
21014;SDS011;19207;-23.482;-46.500;2023-03-01T05:02:31;31.98;;;15.70;;
21014;SDS011;19207;-23.482;-46.500;2023-03-01T05:05:22;34.78;;;16.75;;
21014;SDS011;19207;-23.482;-46.500;2023-03-01T05:08:10;34.35;;;14.85;;
21014;SDS011;19207;-23.482;-46.500;2023-03-01T05:11:04;36.85;;;15.27;;
21014;SDS011;19207;-23.482;-46.500;2023-03-01T05:13:51;33.97;;;16.20;;
21014;SDS011;19207;-23.482;-46.500;2023-03-01T05:16:40;47.80;;;17.27;;
21014;SDS011;19207;-23.482;-46.500;2023-03-01T05:19:26;46.55;;;17.73;;
21014;SDS011;19207;-23.482;-46.500;2023-03-01T05:22:13;57.25;;;18.83;;
21014;SDS011;19207;-23.482;-46.500;2023-03-01T05:25:00;39.53;;;19.37;;
21014;SDS011;19207;-23.482;-46.500;2023-03-01T05:27:47;53.63;;;23.83;;
21014;SDS011;19207;-23.482;-46.500;2023-03-01T05:30:34;58.65;;;23.90;;
21014;SDS011;19207;-23.482;-46.500;2023-03-01T05:33:21;79.45;;;27.17;;
21014;SDS011;19207;-23.482;-46.500;2023-03-01T05:36:08;77.53;;;25.35;;
21014;SDS011;19207;-23.482;-46.500;2023-03-01T05:38:55;74.45;;;29.20;;
21014;SDS011;19207;-23.482;-46.500;2023-03-01T05:41:41;72.97;;;29.52;;
21014;SDS011;19207;-23.482;-46.500;2023-03-01T05:44:28;73.07;;;27.90;;
21014;SDS011;19207;-23.482;-46.500;2023-03-01T05:47:15;57.50;;;25.12;;
21014;SDS011;19207;-23.482;-46.500;2023-03-01T05:50:02;74.75;;;27.95;;
21014;SDS011;19207;-23.482;-46.500;2023-03-01T05:52:50;80.97;;;27.20;;
21014;SDS011;19207;-23.482;-46.500;2023-03-01T05:55:37;82.78;;;26.65;;
21014;SDS011;19207;-23.482;-46.500;2023-03-01T05:58:24;68.22;;;24.90;;
21014;SDS011;19207;-23.482;-46.500;2023-03-01T06:01:11;62.62;;;23.20;;
21014;SDS011;19207;-23.482;-46.500;2023-03-01T06:03:58;56.40;;;21.70;;
21014;SDS011;19207;-23.482;-46.500;2023-03-01T06:06:45;61.17;;;20.02;;
21014;SDS011;19207;-23.482;-46.500;2023-03-01T06:09:31;63.50;;;20.62;;
21014;SDS011;19207;-23.482;-46.500;2023-03-01T06:12:17;67.82;;;21.83;;
21014;SDS011;19207;-23.482;-46.500;2023-03-01T06:15:04;93.20;;;25.15;;
21014;SDS011;19207;-23.482;-46.500;2023-03-01T06:17:52;79.95;;;25.70;;
21014;SDS011;19207;-23.482;-46.500;2023-03-01T06:20:40;100.43;;;31.50;;
21014;SDS011;19207;-23.482;-46.500;2023-03-01T06:23:27;107.50;;;30.25;;
21014;SDS011;19207;-23.482;-46.500;2023-03-01T06:26:14;113.82;;;29.40;;
21014;SDS011;19207;-23.482;-46.500;2023-03-01T06:29:01;124.90;;;33.13;;
21014;SDS011;19207;-23.482;-46.500;2023-03-01T06:31:48;121.37;;;33.22;;
21014;SDS011;19207;-23.482;-46.500;2023-03-01T06:34:35;107.28;;;34.25;;
21014;SDS011;19207;-23.482;-46.500;2023-03-01T06:37:21;99.70;;;33.85;;
21014;SDS011;19207;-23.482;-46.500;2023-03-01T06:40:09;86.00;;;30.52;;
21014;SDS011;19207;-23.482;-46.500;2023-03-01T06:42:57;94.05;;;32.65;;
21014;SDS011;19207;-23.482;-46.500;2023-03-01T06:45:44;102.85;;;34.17;;
21014;SDS011;19207;-23.482;-46.500;2023-03-01T06:48:32;107.07;;;32.88;;
21014;SDS011;19207;-23.482;-46.500;2023-03-01T06:51:19;109.07;;;32.75;;
21014;SDS011;19207;-23.482;-46.500;2023-03-01T06:54:06;110.93;;;31.02;;
21014;SDS011;19207;-23.482;-46.500;2023-03-01T06:56:52;94.13;;;29.45;;
21014;SDS011;19207;-23.482;-46.500;2023-03-01T06:59:41;104.60;;;30.95;;
21014;SDS011;19207;-23.482;-46.500;2023-03-01T07:02:28;106.00;;;30.33;;
21014;SDS011;19207;-23.482;-46.500;2023-03-01T07:05:15;102.65;;;30.70;;
21014;SDS011;19207;-23.482;-46.500;2023-03-01T07:08:03;95.57;;;30.17;;
21014;SDS011;19207;-23.482;-46.500;2023-03-01T07:10:58;96.70;;;28.87;;
21014;SDS011;19207;-23.482;-46.500;2023-03-01T07:13:47;83.45;;;27.02;;
21014;SDS011;19207;-23.482;-46.500;2023-03-01T07:16:34;65.32;;;24.80;;
21014;SDS011;19207;-23.482;-46.500;2023-03-01T07:19:21;70.82;;;24.08;;
21014;SDS011;19207;-23.482;-46.500;2023-03-01T07:22:07;63.97;;;24.77;;
21014;SDS011;19207;-23.482;-46.500;2023-03-01T07:24:55;67.22;;;25.10;;
21014;SDS011;19207;-23.482;-46.500;2023-03-01T07:27:42;66.40;;;25.40;;
21014;SDS011;19207;-23.482;-46.500;2023-03-01T07:30:28;65.53;;;25.17;;
21014;SDS011;19207;-23.482;-46.500;2023-03-01T07:33:16;60.25;;;23.87;;
21014;SDS011;19207;-23.482;-46.500;2023-03-01T07:36:03;72.10;;;26.33;;
21014;SDS011;19207;-23.482;-46.500;2023-03-01T07:38:50;61.70;;;23.83;;
21014;SDS011;19207;-23.482;-46.500;2023-03-01T07:41:37;38.03;;;19.02;;
21014;SDS011;19207;-23.482;-46.500;2023-03-01T07:44:24;40.50;;;18.15;;
21014;SDS011;19207;-23.482;-46.500;2023-03-01T07:47:10;45.08;;;18.92;;
21014;SDS011;19207;-23.482;-46.500;2023-03-01T07:49:57;43.55;;;19.37;;
21014;SDS011;19207;-23.482;-46.500;2023-03-01T07:52:47;45.25;;;20.48;;
21014;SDS011;19207;-23.482;-46.500;2023-03-01T07:55:35;39.65;;;18.30;;
21014;SDS011;19207;-23.482;-46.500;2023-03-01T07:58:21;48.92;;;21.35;;
21014;SDS011;19207;-23.482;-46.500;2023-03-01T08:01:09;48.30;;;21.83;;
21014;SDS011;19207;-23.482;-46.500;2023-03-01T08:03:56;50.65;;;20.58;;
21014;SDS011;19207;-23.482;-46.500;2023-03-01T08:06:43;44.83;;;20.00;;
21014;SDS011;19207;-23.482;-46.500;2023-03-01T08:09:29;66.43;;;22.35;;
21014;SDS011;19207;-23.482;-46.500;2023-03-01T08:12:15;53.67;;;21.60;;
21014;SDS011;19207;-23.482;-46.500;2023-03-01T08:15:02;40.42;;;21.62;;
21014;SDS011;19207;-23.482;-46.500;2023-03-01T08:17:48;44.30;;;21.70;;
21014;SDS011;19207;-23.482;-46.500;2023-03-01T08:20:35;46.10;;;24.27;;
21014;SDS011;19207;-23.482;-46.500;2023-03-01T08:23:22;51.40;;;24.65;;
21014;SDS011;19207;-23.482;-46.500;2023-03-01T08:26:11;49.58;;;24.87;;
21014;SDS011;19207;-23.482;-46.500;2023-03-01T08:28:59;44.63;;;23.87;;
21014;SDS011;19207;-23.482;-46.500;2023-03-01T08:31:46;45.75;;;23.45;;
21014;SDS011;19207;-23.482;-46.500;2023-03-01T08:34:33;38.85;;;21.35;;
21014;SDS011;19207;-23.482;-46.500;2023-03-01T08:37:20;47.67;;;22.92;;
21014;SDS011;19207;-23.482;-46.500;2023-03-01T08:40:08;51.60;;;24.15;;
21014;SDS011;19207;-23.482;-46.500;2023-03-01T08:42:55;49.33;;;22.80;;
21014;SDS011;19207;-23.482;-46.500;2023-03-01T08:45:42;60.53;;;23.92;;
21014;SDS011;19207;-23.482;-46.500;2023-03-01T08:48:29;57.50;;;25.10;;
21014;SDS011;19207;-23.482;-46.500;2023-03-01T08:51:16;48.80;;;24.55;;
21014;SDS011;19207;-23.482;-46.500;2023-03-01T08:54:09;59.42;;;26.00;;
21014;SDS011;19207;-23.482;-46.500;2023-03-01T08:56:57;51.80;;;25.40;;
21014;SDS011;19207;-23.482;-46.500;2023-03-01T08:59:44;56.65;;;24.20;;
21014;SDS011;19207;-23.482;-46.500;2023-03-01T09:02:31;56.00;;;24.60;;
21014;SDS011;19207;-23.482;-46.500;2023-03-01T09:05:19;62.90;;;24.52;;
21014;SDS011;19207;-23.482;-46.500;2023-03-01T09:08:06;58.03;;;25.35;;
21014;SDS011;19207;-23.482;-46.500;2023-03-01T09:10:54;48.58;;;22.85;;
21014;SDS011;19207;-23.482;-46.500;2023-03-01T09:13:40;39.08;;;18.73;;
21014;SDS011;19207;-23.482;-46.500;2023-03-01T09:16:27;33.50;;;19.23;;
21014;SDS011;19207;-23.482;-46.500;2023-03-01T09:19:14;40.35;;;21.65;;
21014;SDS011;19207;-23.482;-46.500;2023-03-01T09:22:02;33.25;;;15.57;;
21014;SDS011;19207;-23.482;-46.500;2023-03-01T09:24:49;38.55;;;17.62;;
21014;SDS011;19207;-23.482;-46.500;2023-03-01T09:27:36;33.00;;;14.90;;
21014;SDS011;19207;-23.482;-46.500;2023-03-01T09:30:23;39.28;;;20.90;;
21014;SDS011;19207;-23.482;-46.500;2023-03-01T09:33:10;42.72;;;24.52;;
21014;SDS011;19207;-23.482;-46.500;2023-03-01T09:36:00;39.90;;;22.70;;
21014;SDS011;19207;-23.482;-46.500;2023-03-01T09:38:47;51.08;;;27.45;;
21014;SDS011;19207;-23.482;-46.500;2023-03-01T09:41:44;67.12;;;29.55;;
21014;SDS011;19207;-23.482;-46.500;2023-03-01T09:47:26;44.47;;;23.95;;
21014;SDS011;19207;-23.482;-46.500;2023-03-01T09:50:20;32.80;;;19.23;;
21014;SDS011;19207;-23.482;-46.500;2023-03-01T09:53:10;31.33;;;17.17;;
21014;SDS011;19207;-23.482;-46.500;2023-03-01T09:56:11;40.12;;;21.90;;
21014;SDS011;19207;-23.482;-46.500;2023-03-01T09:59:05;36.33;;;19.95;;
21014;SDS011;19207;-23.482;-46.500;2023-03-01T10:04:51;22.98;;;13.82;;
21014;SDS011;19207;-23.482;-46.500;2023-03-01T10:08:02;21.75;;;11.68;;
21014;SDS011;19207;-23.482;-46.500;2023-03-01T10:10:46;24.23;;;15.35;;
21014;SDS011;19207;-23.482;-46.500;2023-03-01T10:13:48;25.48;;;14.38;;
21014;SDS011;19207;-23.482;-46.500;2023-03-01T10:16:41;16.37;;;10.98;;
21014;SDS011;19207;-23.482;-46.500;2023-03-01T10:22:21;13.05;;;9.52;;
21014;SDS011;19207;-23.482;-46.500;2023-03-01T10:25:12;15.68;;;10.40;;
21014;SDS011;19207;-23.482;-46.500;2023-03-01T10:34:27;20.75;;;12.52;;
21014;SDS011;19207;-23.482;-46.500;2023-03-01T10:37:16;26.65;;;15.35;;
21014;SDS011;19207;-23.482;-46.500;2023-03-01T10:40:07;26.33;;;14.93;;
21014;SDS011;19207;-23.482;-46.500;2023-03-01T10:42:57;27.42;;;13.13;;
21014;SDS011;19207;-23.482;-46.500;2023-03-01T10:45:44;29.87;;;17.25;;
21014;SDS011;19207;-23.482;-46.500;2023-03-01T10:48:31;24.30;;;15.60;;
21014;SDS011;19207;-23.482;-46.500;2023-03-01T10:51:17;28.12;;;14.35;;
21014;SDS011;19207;-23.482;-46.500;2023-03-01T10:54:05;19.92;;;11.85;;
21014;SDS011;19207;-23.482;-46.500;2023-03-01T10:57:02;31.30;;;19.08;;
21014;SDS011;19207;-23.482;-46.500;2023-03-01T10:59:51;28.10;;;15.48;;
21014;SDS011;19207;-23.482;-46.500;2023-03-01T11:02:49;18.48;;;11.93;;
21014;SDS011;19207;-23.482;-46.500;2023-03-01T11:05:36;18.17;;;10.38;;
21014;SDS011;19207;-23.482;-46.500;2023-03-01T11:08:32;24.15;;;13.45;;
21014;SDS011;19207;-23.482;-46.500;2023-03-01T11:11:32;16.33;;;10.73;;
21014;SDS011;19207;-23.482;-46.500;2023-03-01T11:14:23;21.10;;;12.02;;
21014;SDS011;19207;-23.482;-46.500;2023-03-01T11:17:31;22.35;;;13.00;;
21014;SDS011;19207;-23.482;-46.500;2023-03-01T11:20:20;16.98;;;11.50;;
21014;SDS011;19207;-23.482;-46.500;2023-03-01T11:23:12;17.98;;;10.27;;
21014;SDS011;19207;-23.482;-46.500;2023-03-01T11:26:00;24.12;;;12.80;;
21014;SDS011;19207;-23.482;-46.500;2023-03-01T11:28:49;21.35;;;15.02;;
21014;SDS011;19207;-23.482;-46.500;2023-03-01T11:31:36;16.48;;;11.35;;
21014;SDS011;19207;-23.482;-46.500;2023-03-01T11:34:30;18.10;;;9.52;;
21014;SDS011;19207;-23.482;-46.500;2023-03-01T11:40:17;17.58;;;11.05;;
21014;SDS011;19207;-23.482;-46.500;2023-03-01T11:52:18;12.40;;;8.80;;
21014;SDS011;19207;-23.482;-46.500;2023-03-01T11:58:13;18.55;;;13.13;;
21014;SDS011;19207;-23.482;-46.500;2023-03-01T12:13:12;9.82;;;7.72;;
21014;SDS011;19207;-23.482;-46.500;2023-03-01T12:16:22;15.60;;;8.73;;
21014;SDS011;19207;-23.482;-46.500;2023-03-01T12:25:25;15.98;;;7.75;;
21014;SDS011;19207;-23.482;-46.500;2023-03-01T12:28:13;13.20;;;7.57;;
21014;SDS011;19207;-23.482;-46.500;2023-03-01T12:42:48;14.87;;;8.85;;
21014;SDS011;19207;-23.482;-46.500;2023-03-01T12:51:34;18.37;;;8.35;;
21014;SDS011;19207;-23.482;-46.500;2023-03-01T12:54:31;17.95;;;9.23;;
21014;SDS011;19207;-23.482;-46.500;2023-03-01T12:57:31;15.88;;;9.38;;
21014;SDS011;19207;-23.482;-46.500;2023-03-01T13:00:30;14.45;;;9.10;;
21014;SDS011;19207;-23.482;-46.500;2023-03-01T13:03:25;21.62;;;19.50;;
21014;SDS011;19207;-23.482;-46.500;2023-03-01T13:21:07;15.73;;;10.13;;
21014;SDS011;19207;-23.482;-46.500;2023-03-01T13:23:54;14.75;;;9.23;;
21014;SDS011;19207;-23.482;-46.500;2023-03-01T13:29:50;15.18;;;10.77;;
21014;SDS011;19207;-23.482;-46.500;2023-03-01T13:32:37;17.08;;;11.38;;
21014;SDS011;19207;-23.482;-46.500;2023-03-01T13:44:36;21.25;;;12.68;;
21014;SDS011;19207;-23.482;-46.500;2023-03-01T13:47:24;18.37;;;10.60;;
21014;SDS011;19207;-23.482;-46.500;2023-03-01T13:50:19;19.15;;;11.93;;
21014;SDS011;19207;-23.482;-46.500;2023-03-01T13:53:06;18.25;;;11.02;;
21014;SDS011;19207;-23.482;-46.500;2023-03-01T13:56:00;19.30;;;11.35;;
21014;SDS011;19207;-23.482;-46.500;2023-03-01T13:58:55;18.08;;;11.12;;
21014;SDS011;19207;-23.482;-46.500;2023-03-01T14:01:56;13.85;;;10.52;;
21014;SDS011;19207;-23.482;-46.500;2023-03-01T14:04:44;14.93;;;10.02;;
21014;SDS011;19207;-23.482;-46.500;2023-03-01T14:07:42;16.95;;;11.00;;
21014;SDS011;19207;-23.482;-46.500;2023-03-01T14:20:11;10.35;;;8.77;;
21014;SDS011;19207;-23.482;-46.500;2023-03-01T14:22:59;11.77;;;8.50;;
21014;SDS011;19207;-23.482;-46.500;2023-03-01T14:25:51;16.48;;;8.38;;
21014;SDS011;19207;-23.482;-46.500;2023-03-01T14:28:38;10.38;;;6.97;;
21014;SDS011;19207;-23.482;-46.500;2023-03-01T14:31:36;8.27;;;6.78;;
21014;SDS011;19207;-23.482;-46.500;2023-03-01T14:34:26;6.72;;;5.65;;
21014;SDS011;19207;-23.482;-46.500;2023-03-01T14:37:26;9.50;;;5.37;;
21014;SDS011;19207;-23.482;-46.500;2023-03-01T14:40:20;7.12;;;5.57;;
21014;SDS011;19207;-23.482;-46.500;2023-03-01T14:43:11;6.87;;;4.72;;
21014;SDS011;19207;-23.482;-46.500;2023-03-01T14:45:58;9.63;;;4.90;;
21014;SDS011;19207;-23.482;-46.500;2023-03-01T14:48:48;6.78;;;4.62;;
21014;SDS011;19207;-23.482;-46.500;2023-03-01T14:51:38;15.32;;;13.75;;
21014;SDS011;19207;-23.482;-46.500;2023-03-01T14:54:58;5.82;;;4.50;;
21014;SDS011;19207;-23.482;-46.500;2023-03-01T14:57:38;9.60;;;4.43;;
21014;SDS011;19207;-23.482;-46.500;2023-03-01T15:00:29;6.35;;;4.43;;
21014;SDS011;19207;-23.482;-46.500;2023-03-01T15:06:29;9.05;;;4.70;;
21014;SDS011;19207;-23.482;-46.500;2023-03-01T15:09:15;8.70;;;5.25;;
21014;SDS011;19207;-23.482;-46.500;2023-03-01T15:12:23;7.45;;;4.50;;
21014;SDS011;19207;-23.482;-46.500;2023-03-01T15:18:18;5.68;;;5.10;;
21014;SDS011;19207;-23.482;-46.500;2023-03-01T15:21:07;6.37;;;5.00;;
21014;SDS011;19207;-23.482;-46.500;2023-03-01T15:23:55;6.15;;;5.20;;
21014;SDS011;19207;-23.482;-46.500;2023-03-01T15:26:43;5.60;;;5.10;;
21014;SDS011;19207;-23.482;-46.500;2023-03-01T15:29:32;7.37;;;5.40;;
21014;SDS011;19207;-23.482;-46.500;2023-03-01T15:41:32;5.65;;;5.12;;
21014;SDS011;19207;-23.482;-46.500;2023-03-01T15:44:29;9.52;;;4.87;;
21014;SDS011;19207;-23.482;-46.500;2023-03-01T15:47:26;5.55;;;5.03;;
21014;SDS011;19207;-23.482;-46.500;2023-03-01T15:50:20;5.28;;;4.68;;
21014;SDS011;19207;-23.482;-46.500;2023-03-01T15:53:11;6.28;;;4.55;;
21014;SDS011;19207;-23.482;-46.500;2023-03-01T15:55:59;9.05;;;4.40;;
21014;SDS011;19207;-23.482;-46.500;2023-03-01T15:58:46;4.70;;;4.25;;
21014;SDS011;19207;-23.482;-46.500;2023-03-01T16:01:33;17.37;;;15.73;;
21014;SDS011;19207;-23.482;-46.500;2023-03-01T16:04:22;7.87;;;4.30;;
21014;SDS011;19207;-23.482;-46.500;2023-03-01T16:07:13;7.35;;;4.82;;
21014;SDS011;19207;-23.482;-46.500;2023-03-01T16:10:00;5.45;;;4.40;;
21014;SDS011;19207;-23.482;-46.500;2023-03-01T16:12:47;4.95;;;4.47;;
21014;SDS011;19207;-23.482;-46.500;2023-03-01T16:15:34;8.65;;;4.60;;
21014;SDS011;19207;-23.482;-46.500;2023-03-01T16:18:21;5.07;;;4.57;;
21014;SDS011;19207;-23.482;-46.500;2023-03-01T16:21:10;6.15;;;4.20;;
21014;SDS011;19207;-23.482;-46.500;2023-03-01T16:23:58;5.87;;;4.62;;
21014;SDS011;19207;-23.482;-46.500;2023-03-01T16:26:45;8.75;;;4.40;;
21014;SDS011;19207;-23.482;-46.500;2023-03-01T16:29:32;5.10;;;4.57;;
21014;SDS011;19207;-23.482;-46.500;2023-03-01T16:32:18;6.30;;;4.65;;
21014;SDS011;19207;-23.482;-46.500;2023-03-01T16:35:04;4.95;;;4.45;;
21014;SDS011;19207;-23.482;-46.500;2023-03-01T16:37:52;6.10;;;4.72;;
21014;SDS011;19207;-23.482;-46.500;2023-03-01T16:40:40;7.30;;;4.80;;
21014;SDS011;19207;-23.482;-46.500;2023-03-01T16:43:33;5.35;;;4.62;;
21014;SDS011;19207;-23.482;-46.500;2023-03-01T16:46:24;8.15;;;4.70;;
21014;SDS011;19207;-23.482;-46.500;2023-03-01T16:49:12;5.50;;;4.87;;
21014;SDS011;19207;-23.482;-46.500;2023-03-01T16:51:59;7.85;;;4.70;;
21014;SDS011;19207;-23.482;-46.500;2023-03-01T16:54:47;6.40;;;4.53;;
21014;SDS011;19207;-23.482;-46.500;2023-03-01T16:57:34;6.93;;;5.00;;
21014;SDS011;19207;-23.482;-46.500;2023-03-01T17:00:22;16.40;;;5.82;;
21014;SDS011;19207;-23.482;-46.500;2023-03-01T17:03:10;8.02;;;4.75;;
21014;SDS011;19207;-23.482;-46.500;2023-03-01T17:06:04;5.55;;;4.62;;
21014;SDS011;19207;-23.482;-46.500;2023-03-01T17:08:51;5.82;;;4.57;;
21014;SDS011;19207;-23.482;-46.500;2023-03-01T17:11:37;10.93;;;5.15;;
21014;SDS011;19207;-23.482;-46.500;2023-03-01T17:14:24;8.45;;;5.37;;
21014;SDS011;19207;-23.482;-46.500;2023-03-01T17:17:12;12.05;;;5.40;;
21014;SDS011;19207;-23.482;-46.500;2023-03-01T17:19:59;6.80;;;4.85;;
21014;SDS011;19207;-23.482;-46.500;2023-03-01T17:22:46;6.72;;;4.97;;
21014;SDS011;19207;-23.482;-46.500;2023-03-01T17:25:32;6.53;;;5.03;;
21014;SDS011;19207;-23.482;-46.500;2023-03-01T17:28:21;6.60;;;5.00;;
21014;SDS011;19207;-23.482;-46.500;2023-03-01T17:31:10;5.47;;;4.90;;
21014;SDS011;19207;-23.482;-46.500;2023-03-01T17:33:57;7.45;;;5.43;;
21014;SDS011;19207;-23.482;-46.500;2023-03-01T17:36:45;7.75;;;5.12;;
21014;SDS011;19207;-23.482;-46.500;2023-03-01T17:39:35;8.65;;;4.80;;
21014;SDS011;19207;-23.482;-46.500;2023-03-01T17:42:23;5.25;;;4.70;;
21014;SDS011;19207;-23.482;-46.500;2023-03-01T17:45:12;8.98;;;5.07;;
21014;SDS011;19207;-23.482;-46.500;2023-03-01T17:48:00;8.70;;;4.70;;
21014;SDS011;19207;-23.482;-46.500;2023-03-01T17:50:48;9.80;;;4.87;;
21014;SDS011;19207;-23.482;-46.500;2023-03-01T17:53:35;8.70;;;5.18;;
21014;SDS011;19207;-23.482;-46.500;2023-03-01T17:56:23;5.85;;;5.00;;
21014;SDS011;19207;-23.482;-46.500;2023-03-01T17:59:12;8.63;;;4.93;;